Time;durP1;ratioP1;P1;durP2;ratioP2;P2;SDS_P1;SDS_P2;PMS_P1;PMS_P2;Temp;Humidity;BMP_temperature;BMP_pressure;BME280_temperature;BME280_humidity;BME280_pressure;Samples;Min_cycle;Max_cycle;Signal;HPM_P1;HPM_P2
2021/12/17 00:04:36;;;;;;;4.65;2.50;;;;;;;;;;5022358;28;20044;-54
2021/12/17 00:07:06;;;;;;;3.60;2.47;;;;;;;;;;5029601;28;20379;-54
2021/12/17 00:09:32;;;;;;;4.82;2.67;;;;;;;;;;4999830;28;20445;-51
2021/12/17 00:11:58;;;;;;;4.28;2.63;;;;;;;;;;5008311;28;20066;-52
2021/12/17 00:14:30;;;;;;;3.15;2.38;;;;;;;;;;5008714;28;20018;-54
2021/12/17 00:17:01;;;;;;;3.47;2.40;;;;;;;;;;5009921;28;20022;-53
2021/12/17 00:49:32;;;;;;;3.75;2.40;;;;;;;;;;5008673;28;20072;-55
2021/12/17 00:52:01;;;;;;;4.18;2.58;;;;;;;;;;5006488;28;20022;-53
2021/12/17 00:54:47;;;;;;;2.90;2.35;;;;;;;;;;5007702;28;20479;-53
2021/12/17 00:57:16;;;;;;;3.90;2.67;;;;;;;;;;5007805;28;20500;-53
2021/12/17 00:59:44;;;;;;;4.13;2.65;;;;;;;;;;5008212;28;20021;-53
2021/12/17 01:02:11;;;;;;;3.85;2.70;;;;;;;;;;5007107;28;20041;-54
2021/12/17 01:04:40;;;;;;;3.15;2.30;;;;;;;;;;5007913;28;20026;-54
2021/12/17 01:07:06;;;;;;;4.60;3.05;;;;;;;;;;5008159;28;20028;-51
2021/12/17 01:09:32;;;;;;;4.57;2.40;;;;;;;;;;5009765;28;20100;-54
2021/12/17 01:11:59;;;;;;;3.40;2.65;;;;;;;;;;5005279;28;20448;-52
2021/12/17 01:14:26;;;;;;;4.47;3.42;;;;;;;;;;5010247;28;20034;-54
2021/12/17 01:16:53;;;;;;;3.55;2.72;;;;;;;;;;5007683;28;20032;-51
2021/12/17 01:35:29;;;;;;;5.10;3.33;;;;;;;;;;5011549;28;20043;-52
2021/12/17 01:43:15;;;;;;;3.63;2.47;;;;;;;;;;5028499;28;20060;-53
2021/12/17 01:45:42;;;;;;;3.38;2.42;;;;;;;;;;5017027;28;20040;-54
2021/12/17 01:48:11;;;;;;;4.90;2.63;;;;;;;;;;5023504;28;20065;-53
2021/12/17 02:01:19;;;;;;;4.07;2.75;;;;;;;;;;5022100;28;20084;-54
2021/12/17 02:03:45;;;;;;;4.07;3.15;;;;;;;;;;5025479;28;20026;-54
2021/12/17 02:06:11;;;;;;;4.65;3.20;;;;;;;;;;5013349;28;20022;-54
2021/12/17 02:08:37;;;;;;;3.53;2.63;;;;;;;;;;5024698;28;20033;-52
2021/12/17 02:20:12;;;;;;;4.75;2.78;;;;;;;;;;4978794;28;20045;-51
2021/12/17 02:33:01;;;;;;;4.97;3.05;;;;;;;;;;5027080;28;20034;-50
2021/12/17 02:35:33;;;;;;;3.55;2.63;;;;;;;;;;5015383;28;20366;-54
2021/12/17 02:38:01;;;;;;;4.13;2.80;;;;;;;;;;5022186;28;20371;-54
2021/12/17 02:45:56;;;;;;;5.28;3.35;;;;;;;;;;5018382;28;20056;-53
2021/12/17 02:48:23;;;;;;;3.30;2.30;;;;;;;;;;5017975;28;20022;-55
2021/12/17 02:50:50;;;;;;;4.47;3.53;;;;;;;;;;5020566;28;20034;-54
2021/12/17 02:53:17;;;;;;;6.05;3.10;;;;;;;;;;5025448;28;20033;-50
2021/12/17 02:55:46;;;;;;;4.63;2.75;;;;;;;;;;5025173;28;20386;-56
2021/12/17 02:58:12;;;;;;;5.03;3.00;;;;;;;;;;5020637;28;20402;-50
2021/12/17 03:00:39;;;;;;;4.13;2.95;;;;;;;;;;5018025;28;20028;-51
2021/12/17 03:03:08;;;;;;;5.30;3.38;;;;;;;;;;5027222;28;20022;-54
2021/12/17 03:05:37;;;;;;;3.40;2.80;;;;;;;;;;5015464;28;20041;-54
2021/12/17 03:08:06;;;;;;;4.78;3.22;;;;;;;;;;5019672;28;20029;-53
2021/12/17 03:10:32;;;;;;;3.95;2.70;;;;;;;;;;5034406;28;20559;-54
2021/12/17 03:13:01;;;;;;;4.97;3.13;;;;;;;;;;5025968;28;20068;-54
2021/12/17 03:23:39;;;;;;;3.80;3.22;;;;;;;;;;5014079;28;20037;-50
2021/12/17 03:26:07;;;;;;;4.05;2.97;;;;;;;;;;5021900;28;20053;-53
2021/12/17 03:28:33;;;;;;;3.47;2.90;;;;;;;;;;5020335;28;20036;-54
2021/12/17 03:31:00;;;;;;;3.85;2.83;;;;;;;;;;5028723;28;20033;-53
2021/12/17 03:33:26;;;;;;;4.97;2.90;;;;;;;;;;5018014;28;20025;-53
2021/12/17 03:35:52;;;;;;;3.78;2.70;;;;;;;;;;5027102;28;20030;-53
2021/12/17 03:38:18;;;;;;;5.90;3.25;;;;;;;;;;5023965;28;20074;-54
2021/12/17 03:40:45;;;;;;;4.40;2.90;;;;;;;;;;5026932;28;20478;-55
2021/12/17 03:43:13;;;;;;;3.97;2.88;;;;;;;;;;5017472;28;20029;-55
2021/12/17 03:45:40;;;;;;;5.70;3.22;;;;;;;;;;5028627;28;20497;-56
2021/12/17 03:48:06;;;;;;;5.38;3.22;;;;;;;;;;5022032;28;20038;-53
2021/12/17 03:50:34;;;;;;;4.10;3.03;;;;;;;;;;5028076;28;20383;-52
2021/12/17 03:53:00;;;;;;;4.88;3.10;;;;;;;;;;5017503;28;20022;-53
2021/12/17 03:55:27;;;;;;;3.95;3.00;;;;;;;;;;5026671;28;20030;-53
2021/12/17 03:57:53;;;;;;;4.07;2.72;;;;;;;;;;5032675;28;20048;-54
2021/12/17 04:00:19;;;;;;;4.35;2.70;;;;;;;;;;5028369;28;20060;-53
2021/12/17 04:02:48;;;;;;;4.60;2.92;;;;;;;;;;5019726;28;20022;-53
2021/12/17 04:05:14;;;;;;;3.72;2.42;;;;;;;;;;5023475;28;20025;-53
2021/12/17 04:07:40;;;;;;;4.72;3.67;;;;;;;;;;5028703;28;20084;-58
2021/12/17 04:10:06;;;;;;;3.70;2.28;;;;;;;;;;5022307;28;20038;-53
2021/12/17 04:15:18;;;;;;;3.33;2.72;;;;;;;;;;5026179;28;20040;-55
2021/12/17 04:17:52;;;;;;;4.22;2.72;;;;;;;;;;5012657;28;20505;-54
2021/12/17 04:20:18;;;;;;;3.50;2.50;;;;;;;;;;5023816;28;20391;-54
2021/12/17 04:22:44;;;;;;;3.95;2.75;;;;;;;;;;5019391;28;20378;-54
2021/12/17 04:25:10;;;;;;;4.93;2.95;;;;;;;;;;5029583;28;20071;-55
2021/12/17 04:27:36;;;;;;;5.20;3.42;;;;;;;;;;5013953;28;20036;-55
2021/12/17 04:30:02;;;;;;;4.07;2.80;;;;;;;;;;5020851;28;20052;-51
2021/12/17 04:32:28;;;;;;;3.65;2.55;;;;;;;;;;5032056;28;20029;-49
2021/12/17 04:34:54;;;;;;;3.92;2.88;;;;;;;;;;5013232;28;20111;-50
2021/12/17 04:37:20;;;;;;;4.00;2.65;;;;;;;;;;5029596;28;20049;-50
2021/12/17 04:39:46;;;;;;;3.67;2.60;;;;;;;;;;5028187;28;20098;-54
2021/12/17 04:42:19;;;;;;;5.03;2.85;;;;;;;;;;5022703;28;20553;-50
2021/12/17 04:44:52;;;;;;;4.13;3.03;;;;;;;;;;5026538;28;20033;-51
2021/12/17 04:58:04;;;;;;;4.93;2.88;;;;;;;;;;5023509;28;20052;-55
2021/12/17 05:00:31;;;;;;;2.95;2.33;;;;;;;;;;5023753;28;20116;-54
2021/12/17 05:02:59;;;;;;;3.67;2.67;;;;;;;;;;5016691;28;20184;-53
2021/12/17 05:05:29;;;;;;;3.72;2.85;;;;;;;;;;5021299;28;20471;-53
2021/12/17 05:08:01;;;;;;;3.30;2.60;;;;;;;;;;5019651;28;20033;-56
2021/12/17 05:18:30;;;;;;;5.18;3.55;;;;;;;;;;5018917;28;20121;-51
2021/12/17 05:21:02;;;;;;;3.78;2.50;;;;;;;;;;5012815;28;20076;-51
2021/12/17 05:23:35;;;;;;;4.25;2.78;;;;;;;;;;5028907;28;20364;-51
2021/12/17 05:26:02;;;;;;;3.30;2.20;;;;;;;;;;5019307;28;20018;-55
2021/12/17 05:28:28;;;;;;;4.22;2.60;;;;;;;;;;5019719;28;20041;-51
2021/12/17 05:30:55;;;;;;;4.00;2.88;;;;;;;;;;5026481;28;20040;-55
2021/12/17 05:33:22;;;;;;;3.83;2.47;;;;;;;;;;5015524;28;20087;-57
2021/12/17 05:35:48;;;;;;;4.57;3.00;;;;;;;;;;5025127;28;20018;-53
2021/12/17 05:38:16;;;;;;;3.78;2.90;;;;;;;;;;5008987;28;20527;-55
2021/12/17 05:40:42;;;;;;;2.75;2.25;;;;;;;;;;5003471;28;20036;-56
2021/12/17 05:43:09;;;;;;;3.70;2.72;;;;;;;;;;5005318;28;20033;-53
2021/12/17 05:45:47;;;;;;;3.95;3.20;;;;;;;;;;5004729;28;20025;-55
2021/12/17 05:48:14;;;;;;;4.00;2.60;;;;;;;;;;5006839;28;20032;-53
2021/12/17 05:50:41;;;;;;;3.30;2.72;;;;;;;;;;5008207;28;20027;-55
2021/12/17 05:53:08;;;;;;;4.63;2.35;;;;;;;;;;5003045;28;20076;-54
2021/12/17 05:55:34;;;;;;;3.53;2.70;;;;;;;;;;5006089;28;20025;-54
2021/12/17 05:58:00;;;;;;;3.47;2.53;;;;;;;;;;5007827;28;20476;-54
2021/12/17 06:00:30;;;;;;;4.63;2.65;;;;;;;;;;5003325;28;20026;-56
2021/12/17 06:02:57;;;;;;;4.50;2.58;;;;;;;;;;5003975;28;20033;-53
2021/12/17 06:05:23;;;;;;;3.60;2.70;;;;;;;;;;5007966;28;20476;-57
2021/12/17 06:07:49;;;;;;;3.38;2.30;;;;;;;;;;5004623;28;20057;-52
2021/12/17 06:10:15;;;;;;;3.83;2.60;;;;;;;;;;5004266;28;20507;-54
2021/12/17 06:12:41;;;;;;;3.42;2.25;;;;;;;;;;5002100;28;20026;-53
2021/12/17 06:15:09;;;;;;;4.95;3.53;;;;;;;;;;5005422;28;20026;-53
2021/12/17 06:17:35;;;;;;;4.03;2.65;;;;;;;;;;5024325;28;20033;-53
2021/12/17 06:20:01;;;;;;;3.67;2.38;;;;;;;;;;5021516;28;20030;-55
2021/12/17 06:22:27;;;;;;;3.20;2.38;;;;;;;;;;5022082;28;20104;-54
2021/12/17 06:24:53;;;;;;;3.78;2.65;;;;;;;;;;5024254;28;20091;-54
2021/12/17 06:27:23;;;;;;;4.43;3.10;;;;;;;;;;5024014;28;20040;-53
2021/12/17 06:29:49;;;;;;;5.53;2.50;;;;;;;;;;5024991;28;20026;-54
2021/12/17 06:32:15;;;;;;;6.28;3.28;;;;;;;;;;5021391;28;20036;-54
2021/12/17 06:34:41;;;;;;;3.95;2.40;;;;;;;;;;5017879;28;20036;-57
2021/12/17 06:37:07;;;;;;;5.45;2.38;;;;;;;;;;5022063;28;20014;-54
2021/12/17 06:39:34;;;;;;;4.40;2.92;;;;;;;;;;5027443;28;20551;-50
2021/12/17 06:42:00;;;;;;;5.30;2.45;;;;;;;;;;5018549;28;20467;-54
2021/12/17 06:44:27;;;;;;;11.13;2.75;;;;;;;;;;5020387;28;20033;-55
2021/12/17 06:47:00;;;;;;;5.15;2.55;;;;;;;;;;5021548;28;20036;-52
2021/12/17 06:55:02;;;;;;;5.70;2.65;;;;;;;;;;5016023;28;20049;-50
2021/12/17 07:10:44;;;;;;;9.00;3.08;;;;;;;;;;5021020;28;20107;-49
2021/12/17 07:21:43;;;;;;;7.40;2.35;;;;;;;;;;5031448;28;20060;-48
2021/12/17 07:24:47;;;;;;;6.88;2.85;;;;;;;;;;5023963;28;20025;-53
2021/12/17 07:32:30;;;;;;;4.50;2.25;;;;;;;;;;5024656;28;20034;-49
2021/12/17 07:40:05;;;;;;;4.03;2.45;;;;;;;;;;5024894;28;20053;-53
2021/12/17 07:42:32;;;;;;;5.35;2.22;;;;;;;;;;5026147;28;20143;-51
2021/12/17 07:44:58;;;;;;;7.32;2.28;;;;;;;;;;5017543;28;20037;-49
2021/12/17 07:47:24;;;;;;;6.75;2.95;;;;;;;;;;5028726;28;20061;-51
2021/12/17 07:49:50;;;;;;;4.03;2.33;;;;;;;;;;5032832;28;20029;-53
2021/12/17 07:52:16;;;;;;;5.65;2.30;;;;;;;;;;5024028;28;20034;-49
2021/12/17 07:54:42;;;;;;;4.28;2.20;;;;;;;;;;5025099;28;20030;-50
2021/12/17 07:57:09;;;;;;;3.38;2.25;;;;;;;;;;5026104;28;20054;-53
2021/12/17 07:59:35;;;;;;;6.75;2.38;;;;;;;;;;5028767;28;20018;-52
2021/12/17 08:02:01;;;;;;;5.72;2.17;;;;;;;;;;5020243;28;20084;-54
2021/12/17 08:04:27;;;;;;;11.13;2.75;;;;;;;;;;5027279;28;20033;-49
2021/12/17 08:06:53;;;;;;;5.10;3.03;;;;;;;;;;5028222;28;20079;-50
2021/12/17 08:09:20;;;;;;;3.28;2.30;;;;;;;;;;5017519;28;20383;-54
2021/12/17 08:11:46;;;;;;;5.00;2.10;;;;;;;;;;5027184;28;20030;-48
2021/12/17 08:14:16;;;;;;;6.22;2.67;;;;;;;;;;5013006;28;20110;-53
2021/12/17 08:25:16;;;;;;;5.88;2.40;;;;;;;;;;5007724;28;20386;-51
2021/12/17 08:28:02;;;;;;;4.57;2.22;;;;;;;;;;5013221;28;20069;-57
2021/12/17 08:30:29;;;;;;;3.33;2.20;;;;;;;;;;5013443;28;20029;-52
2021/12/17 08:32:55;;;;;;;5.03;2.63;;;;;;;;;;5012403;28;20022;-52
2021/12/17 08:35:22;;;;;;;4.63;1.90;;;;;;;;;;5012660;28;20368;-49
2021/12/17 08:37:48;;;;;;;4.05;2.63;;;;;;;;;;5012882;28;20026;-53
2021/12/17 08:40:14;;;;;;;2.85;2.15;;;;;;;;;;5013911;28;20057;-52
2021/12/17 08:42:40;;;;;;;5.63;2.28;;;;;;;;;;5012875;28;20069;-52
2021/12/17 08:45:09;;;;;;;3.40;1.92;;;;;;;;;;5013295;28;20022;-53
2021/12/17 08:47:36;;;;;;;4.93;2.30;;;;;;;;;;5013894;28;20026;-53
2021/12/17 08:50:06;;;;;;;6.43;2.20;;;;;;;;;;5012889;28;20069;-53
2021/12/17 08:52:32;;;;;;;4.28;2.10;;;;;;;;;;5013759;28;20433;-53
2021/12/17 08:54:58;;;;;;;3.65;1.50;;;;;;;;;;5009331;28;20022;-58
2021/12/17 08:57:24;;;;;;;4.80;1.90;;;;;;;;;;5012849;28;20046;-50
2021/12/17 08:59:50;;;;;;;2.88;1.60;;;;;;;;;;5012512;28;20034;-52
2021/12/17 09:02:16;;;;;;;5.63;2.00;;;;;;;;;;5013061;28;20030;-48
2021/12/17 09:04:42;;;;;;;4.80;1.85;;;;;;;;;;5010872;28;20099;-53
2021/12/17 09:07:08;;;;;;;2.83;1.92;;;;;;;;;;5012301;28;20038;-48
2021/12/17 09:09:34;;;;;;;2.65;1.65;;;;;;;;;;5012997;28;20022;-50
2021/12/17 09:12:00;;;;;;;3.70;2.00;;;;;;;;;;5007332;28;20423;-51
2021/12/17 09:14:28;;;;;;;3.45;1.38;;;;;;;;;;5007792;28;20080;-50
2021/12/17 09:16:55;;;;;;;2.88;1.70;;;;;;;;;;5012104;28;20491;-49
2021/12/17 09:19:21;;;;;;;4.28;1.98;;;;;;;;;;5011353;28;20022;-50
2021/12/17 09:21:48;;;;;;;3.17;1.73;;;;;;;;;;5011984;28;20096;-54
2021/12/17 09:24:14;;;;;;;3.25;1.70;;;;;;;;;;5012520;28;20340;-48
2021/12/17 09:26:40;;;;;;;3.13;1.35;;;;;;;;;;5012655;28;20030;-48
2021/12/17 09:29:06;;;;;;;2.85;1.65;;;;;;;;;;5011473;28;20022;-49
2021/12/17 09:31:33;;;;;;;1.88;1.45;;;;;;;;;;5012465;28;20096;-49
2021/12/17 09:33:59;;;;;;;5.03;2.08;;;;;;;;;;5011644;28;20518;-48
2021/12/17 09:36:25;;;;;;;2.60;1.70;;;;;;;;;;5012147;28;20371;-51
2021/12/17 09:38:52;;;;;;;2.95;1.52;;;;;;;;;;5011390;28;20034;-49
2021/12/17 09:41:19;;;;;;;1.98;1.20;;;;;;;;;;5012774;28;20018;-51
2021/12/17 09:43:45;;;;;;;2.38;1.23;;;;;;;;;;5011891;28;20026;-50
2021/12/17 09:46:11;;;;;;;2.72;1.48;;;;;;;;;;5011845;28;20033;-51
2021/12/17 09:48:37;;;;;;;3.45;1.55;;;;;;;;;;5012611;28;20464;-49
2021/12/17 09:51:04;;;;;;;1.60;1.25;;;;;;;;;;5010685;28;20491;-51
2021/12/17 09:53:31;;;;;;;3.17;1.40;;;;;;;;;;5012333;28;20030;-51
2021/12/17 09:55:57;;;;;;;2.92;1.20;;;;;;;;;;5011530;28;20445;-51
2021/12/17 09:58:23;;;;;;;4.05;1.33;;;;;;;;;;5012549;28;20053;-51
2021/12/17 10:00:49;;;;;;;2.08;1.38;;;;;;;;;;5012020;28;20076;-48
2021/12/17 10:03:15;;;;;;;3.63;1.77;;;;;;;;;;5012421;28;20029;-51
2021/12/17 10:05:43;;;;;;;2.28;1.30;;;;;;;;;;5011639;28;20026;-52
2021/12/17 10:08:13;;;;;;;2.42;1.50;;;;;;;;;;5011036;28;20030;-51
2021/12/17 10:10:43;;;;;;;3.22;1.67;;;;;;;;;;5012100;28;20034;-51
2021/12/17 10:13:13;;;;;;;3.45;1.42;;;;;;;;;;5011741;28;20034;-52
2021/12/17 10:15:41;;;;;;;2.22;1.40;;;;;;;;;;5012046;28;20030;-50
2021/12/17 10:18:07;;;;;;;2.92;1.67;;;;;;;;;;5011439;28;20568;-50
2021/12/17 10:20:35;;;;;;;2.45;1.10;;;;;;;;;;5012123;28;20534;-53
2021/12/17 10:23:06;;;;;;;2.22;1.33;;;;;;;;;;5011579;28;20026;-48
2021/12/17 10:25:34;;;;;;;3.08;1.17;;;;;;;;;;5012228;28;20367;-52
2021/12/17 10:28:03;;;;;;;2.80;1.48;;;;;;;;;;5011740;28;20022;-53
2021/12/17 10:30:29;;;;;;;2.92;1.35;;;;;;;;;;5012286;28;20026;-55
2021/12/17 10:32:57;;;;;;;4.22;1.33;;;;;;;;;;5011309;28;20032;-53
2021/12/17 10:35:24;;;;;;;2.95;1.60;;;;;;;;;;5012191;28;20498;-54
2021/12/17 10:38:02;;;;;;;2.67;1.60;;;;;;;;;;5011383;28;20025;-52
2021/12/17 10:40:29;;;;;;;1.40;1.20;;;;;;;;;;5014751;28;20029;-52
2021/12/17 10:45:31;;;;;;;2.53;1.48;;;;;;;;;;5016035;28;20426;-52
2021/12/17 10:51:02;;;;;;;2.22;1.23;;;;;;;;;;5015356;28;20044;-53
2021/12/17 10:53:28;;;;;;;2.03;1.48;;;;;;;;;;5016095;28;20460;-52
2021/12/17 10:55:55;;;;;;;2.25;1.60;;;;;;;;;;5015288;28;20041;-51
2021/12/17 10:58:22;;;;;;;2.30;1.58;;;;;;;;;;5015390;28;20104;-50
2021/12/17 11:00:59;;;;;;;1.55;1.20;;;;;;;;;;5015482;28;20036;-51
2021/12/17 11:03:25;;;;;;;2.35;1.58;;;;;;;;;;5015919;28;20376;-49
2021/12/17 11:05:51;;;;;;;2.90;1.75;;;;;;;;;;5014877;28;20414;-49
2021/12/17 11:08:28;;;;;;;1.58;1.38;;;;;;;;;;5015716;28;20033;-49
2021/12/17 11:11:00;;;;;;;2.20;1.42;;;;;;;;;;5014730;28;20080;-50
2021/12/17 11:13:27;;;;;;;2.20;1.20;;;;;;;;;;5015909;28;20109;-51
2021/12/17 11:15:53;;;;;;;1.67;1.27;;;;;;;;;;5014601;28;20037;-50
2021/12/17 11:18:20;;;;;;;2.00;1.40;;;;;;;;;;5015562;28;20357;-52
2021/12/17 11:20:46;;;;;;;3.00;1.30;;;;;;;;;;5015603;28;20350;-48
2021/12/17 11:23:14;;;;;;;2.15;1.15;;;;;;;;;;5015517;28;20038;-50
2021/12/17 11:25:44;;;;;;;2.20;1.23;;;;;;;;;;5015372;28;20084;-52
2021/12/17 11:28:11;;;;;;;2.25;1.30;;;;;;;;;;5014805;28;20033;-50
2021/12/17 11:30:41;;;;;;;2.08;1.17;;;;;;;;;;5015377;28;20115;-50
2021/12/17 11:33:08;;;;;;;1.52;1.23;;;;;;;;;;5014994;28;20168;-52
2021/12/17 11:35:35;;;;;;;1.95;1.30;;;;;;;;;;5015056;28;20414;-53
2021/12/17 11:38:03;;;;;;;2.28;1.67;;;;;;;;;;5013972;28;20034;-51
2021/12/17 11:40:31;;;;;;;1.50;1.27;;;;;;;;;;5015032;28;20029;-52
2021/12/17 11:43:15;;;;;;;3.25;1.40;;;;;;;;;;5014546;28;20038;-49
2021/12/17 11:45:42;;;;;;;2.42;1.30;;;;;;;;;;5015365;28;20026;-49
2021/12/17 11:48:22;;;;;;;2.10;1.38;;;;;;;;;;5014254;28;20270;-54
2021/12/17 11:51:02;;;;;;;1.92;1.50;;;;;;;;;;5014412;28;20029;-48
2021/12/17 11:53:28;;;;;;;1.55;1.00;;;;;;;;;;5014791;28;20030;-51
2021/12/17 11:55:56;;;;;;;1.80;1.25;;;;;;;;;;5014239;28;20026;-48
2021/12/17 11:58:41;;;;;;;2.90;1.58;;;;;;;;;;5014951;28;20065;-48
2021/12/17 12:01:07;;;;;;;2.58;1.40;;;;;;;;;;5014074;28;20270;-50
2021/12/17 12:03:33;;;;;;;2.65;1.45;;;;;;;;;;5014823;28;20045;-50
2021/12/17 12:06:02;;;;;;;1.83;1.17;;;;;;;;;;5013817;28;20030;-48
2021/12/17 12:08:34;;;;;;;1.40;1.10;;;;;;;;;;5014546;28;20124;-50
2021/12/17 12:11:00;;;;;;;;;;;;;;;;;;5014553;28;20041;-53
2021/12/17 12:13:35;;;;;;;1.80;1.15;;;;;;;;;;5014147;28;20007;-50
2021/12/17 12:16:02;;;;;;;1.52;1.10;;;;;;;;;;5013008;28;20025;-52
2021/12/17 12:18:39;;;;;;;1.75;1.20;;;;;;;;;;5014562;28;20383;-50
2021/12/17 12:21:05;;;;;;;1.30;1.20;;;;;;;;;;5014358;28;20041;-50
2021/12/17 12:23:31;;;;;;;2.03;1.10;;;;;;;;;;5014390;28;20045;-51
2021/12/17 12:28:47;;;;;;;2.70;0.80;;;;;;;;;;5013979;28;20038;-49
2021/12/17 12:31:14;;;;;;;3.63;1.88;;;;;;;;;;5014392;28;20030;-51
2021/12/17 12:33:59;;;;;;;1.40;1.00;;;;;;;;;;5013660;28;20033;-49
2021/12/17 12:36:43;;;;;;;1.30;1.10;;;;;;;;;;5014336;28;20032;-50
2021/12/17 12:39:16;;;;;;;1.10;0.90;;;;;;;;;;5013210;28;20127;-53
2021/12/17 12:41:46;;;;;;;1.63;1.20;;;;;;;;;;4993126;28;20080;-52
2021/12/17 12:44:13;;;;;;;1.45;1.05;;;;;;;;;;5001400;28;20026;-50
2021/12/17 12:46:49;;;;;;;1.27;1.05;;;;;;;;;;5013996;28;20104;-51
2021/12/17 12:49:35;;;;;;;1.35;0.95;;;;;;;;;;5014077;28;20540;-52
2021/12/17 12:52:22;;;;;;;1.42;1.17;;;;;;;;;;5011462;28;20562;-54
2021/12/17 12:54:49;;;;;;;1.42;0.90;;;;;;;;;;5013540;28;20490;-52
2021/12/17 12:57:23;;;;;;;2.72;1.38;;;;;;;;;;5013190;28;20058;-49
2021/12/17 12:59:51;;;;;;;1.13;0.85;;;;;;;;;;5013398;28;20049;-58
2021/12/17 13:02:17;;;;;;;1.50;1.10;;;;;;;;;;5012543;28;20026;-53
2021/12/17 13:04:43;;;;;;;1.60;1.10;;;;;;;;;;5013462;28;20026;-53
2021/12/17 13:07:09;;;;;;;1.13;1.02;;;;;;;;;;5013003;28;20487;-50
2021/12/17 13:09:42;;;;;;;1.00;0.90;;;;;;;;;;5013511;28;20080;-50
2021/12/17 13:12:08;;;;;;;1.30;1.00;;;;;;;;;;5012512;28;20030;-50
2021/12/17 13:14:34;;;;;;;2.28;1.23;;;;;;;;;;5013175;28;20038;-50
2021/12/17 13:17:29;;;;;;;1.35;1.08;;;;;;;;;;5012862;28;20101;-48
2021/12/17 13:22:55;;;;;;;2.03;1.00;;;;;;;;;;5012803;28;20040;-49
2021/12/17 13:25:28;;;;;;;1.35;0.82;;;;;;;;;;5013059;28;20141;-53
2021/12/17 13:27:55;;;;;;;1.17;0.90;;;;;;;;;;5012627;28;20117;-49
2021/12/17 13:30:27;;;;;;;1.65;1.00;;;;;;;;;;5013341;28;20029;-50
2021/12/17 13:32:54;;;;;;;1.63;0.98;;;;;;;;;;5008141;28;20467;-49
2021/12/17 13:35:21;;;;;;;3.88;1.00;;;;;;;;;;5012967;28;20413;-50
2021/12/17 13:37:52;;;;;;;1.58;1.00;;;;;;;;;;5013228;28;20030;-49
2021/12/17 13:40:21;;;;;;;1.00;0.90;;;;;;;;;;5012678;28;20022;-48
2021/12/17 13:42:47;;;;;;;1.13;0.90;;;;;;;;;;5012912;28;20371;-50
2021/12/17 13:45:13;;;;;;;2.65;0.93;;;;;;;;;;5011863;28;20104;-52
2021/12/17 13:47:45;;;;;;;2.15;1.08;;;;;;;;;;5012960;28;20029;-52
2021/12/17 13:50:13;;;;;;;1.02;0.93;;;;;;;;;;5012592;28;20018;-52
2021/12/17 13:52:47;;;;;;;1.75;1.00;;;;;;;;;;5012548;28;20518;-48
2021/12/17 13:55:14;;;;;;;1.55;1.02;;;;;;;;;;5011111;28;20108;-49
2021/12/17 13:57:41;;;;;;;1.90;1.02;;;;;;;;;;5012198;28;20061;-54
2021/12/17 14:00:10;;;;;;;1.55;0.90;;;;;;;;;;5011429;28;20398;-50
2021/12/17 14:02:36;;;;;;;1.23;0.90;;;;;;;;;;5011938;28;20040;-49
2021/12/17 14:05:05;;;;;;;1.60;1.08;;;;;;;;;;5010885;28;20034;-49
2021/12/17 14:07:33;;;;;;;2.42;1.10;;;;;;;;;;5011395;28;20025;-48
2021/12/17 14:10:03;;;;;;;1.00;0.80;;;;;;;;;;5010283;28;20033;-51
2021/12/17 14:12:32;;;;;;;1.80;0.88;;;;;;;;;;5011254;28;20439;-53
2021/12/17 14:15:02;;;;;;;1.30;1.05;;;;;;;;;;5011922;28;20026;-50
2021/12/17 14:17:35;;;;;;;1.80;0.85;;;;;;;;;;5012681;28;20026;-52
2021/12/17 14:20:06;;;;;;;3.20;0.82;;;;;;;;;;5011006;28;20030;-50
2021/12/17 14:22:34;;;;;;;1.00;0.90;;;;;;;;;;5012325;28;20521;-49
2021/12/17 14:25:00;;;;;;;1.73;0.95;;;;;;;;;;5006938;28;20435;-52
2021/12/17 14:27:43;;;;;;;1.70;1.30;;;;;;;;;;4998772;28;20022;-51
2021/12/17 14:30:09;;;;;;;2.33;1.00;;;;;;;;;;5011247;28;20038;-48
2021/12/17 14:32:43;;;;;;;3.00;1.00;;;;;;;;;;5011103;28;20438;-52
2021/12/17 14:35:09;;;;;;;2.53;0.95;;;;;;;;;;5001031;28;20025;-52
2021/12/17 14:37:47;;;;;;;0.93;0.82;;;;;;;;;;5012410;28;20065;-48
2021/12/17 14:40:35;;;;;;;2.58;0.98;;;;;;;;;;5011689;28;20060;-48
2021/12/17 14:43:01;;;;;;;1.25;0.90;;;;;;;;;;5011354;28;20041;-52
2021/12/17 14:45:39;;;;;;;6.38;0.70;;;;;;;;;;5011497;28;20160;-49
2021/12/17 14:48:16;;;;;;;1.70;0.70;;;;;;;;;;5011692;28;20018;-52
2021/12/17 15:04:44;;;;;;;13.80;2.42;;;;;;;;;;5011556;28;20046;-50
2021/12/17 15:07:10;;;;;;;3.22;1.08;;;;;;;;;;5010483;28;20026;-51
2021/12/17 15:09:40;;;;;;;3.88;1.10;;;;;;;;;;5011361;28;20048;-52
2021/12/17 15:12:37;;;;;;;2.78;1.15;;;;;;;;;;5010244;28;20026;-50
2021/12/17 15:14:53;;;;;;;2.13;1.27;;;;;;;;;;5010882;28;20069;-53
2021/12/17 15:17:20;;;;;;;3.45;0.90;;;;;;;;;;5010615;28;20034;-51
2021/12/17 15:19:46;;;;;;;3.67;1.20;;;;;;;;;;5011373;28;20026;-56
2021/12/17 15:22:12;;;;;;;5.85;2.08;;;;;;;;;;5011287;28;20116;-48
2021/12/17 15:24:39;;;;;;;8.73;1.50;;;;;;;;;;5011158;28;20022;-49
2021/12/17 15:27:05;;;;;;;4.78;1.20;;;;;;;;;;5014028;28;20441;-49
2021/12/17 15:29:31;;;;;;;2.78;1.70;;;;;;;;;;5015081;28;20033;-48
2021/12/17 15:31:57;;;;;;;16.45;2.03;;;;;;;;;;5014264;28;20038;-57
2021/12/17 15:34:23;;;;;;;5.50;1.50;;;;;;;;;;5014771;28;20034;-53
2021/12/17 15:36:50;;;;;;;4.70;1.50;;;;;;;;;;5014224;28;20033;-50
2021/12/17 15:39:16;;;;;;;5.95;1.80;;;;;;;;;;5004705;28;20586;-51
2021/12/17 15:41:42;;;;;;;4.97;1.80;;;;;;;;;;5014643;28;20056;-51
2021/12/17 15:44:12;;;;;;;2.17;1.92;;;;;;;;;;5013888;28;20033;-56
2021/12/17 15:46:38;;;;;;;3.50;1.45;;;;;;;;;;5013867;28;20041;-57
2021/12/17 15:49:05;;;;;;;16.00;2.13;;;;;;;;;;5013727;28;20026;-50
2021/12/17 15:51:32;;;;;;;4.07;1.60;;;;;;;;;;5010085;28;20041;-50
2021/12/17 15:53:58;;;;;;;2.55;1.73;;;;;;;;;;4999466;28;20022;-57
2021/12/17 15:56:25;;;;;;;5.32;2.50;;;;;;;;;;5008407;28;20042;-53
2021/12/17 15:58:51;;;;;;;5.85;2.10;;;;;;;;;;5014170;28;20037;-51
2021/12/17 16:01:17;;;;;;;4.07;1.90;;;;;;;;;;5013234;28;20518;-49
2021/12/17 16:03:44;;;;;;;4.57;1.80;;;;;;;;;;5014648;28;20034;-50
2021/12/17 16:06:10;;;;;;;2.53;2.03;;;;;;;;;;5013147;28;20041;-49
2021/12/17 16:08:43;;;;;;;6.38;1.60;;;;;;;;;;5014105;28;20036;-53
2021/12/17 16:17:06;;;;;;;2.55;1.55;;;;;;;;;;5005464;28;20451;-55
2021/12/17 16:22:01;;;;;;;6.35;2.58;;;;;;;;;;5004282;28;20034;-56
2021/12/17 16:24:27;;;;;;;3.20;1.90;;;;;;;;;;5002311;28;20149;-55
2021/12/17 16:26:56;;;;;;;2.50;1.80;;;;;;;;;;5006496;28;20379;-53
2021/12/17 16:29:22;;;;;;;5.13;2.03;;;;;;;;;;5002329;28;20069;-51
2021/12/17 16:31:49;;;;;;;4.40;2.30;;;;;;;;;;5005062;28;20023;-51
2021/12/17 16:34:15;;;;;;;3.60;1.85;;;;;;;;;;5002496;28;20698;-55
2021/12/17 16:36:42;;;;;;;7.32;2.13;;;;;;;;;;5004138;28;20073;-50
2021/12/17 16:39:10;;;;;;;4.10;2.08;;;;;;;;;;5000987;28;20022;-56
2021/12/17 16:41:36;;;;;;;5.82;1.67;;;;;;;;;;5005993;28;20168;-51
2021/12/17 16:44:09;;;;;;;5.40;2.15;;;;;;;;;;5012731;28;20069;-55
2021/12/17 16:49:06;;;;;;;4.43;2.00;;;;;;;;;;4993261;28;20427;-51
2021/12/17 16:51:32;;;;;;;3.58;1.75;;;;;;;;;;5005235;28;20029;-53
2021/12/17 16:53:58;;;;;;;3.58;1.80;;;;;;;;;;5013075;28;20037;-59
2021/12/17 16:56:24;;;;;;;2.17;1.30;;;;;;;;;;5012679;28;20051;-54
2021/12/17 16:58:51;;;;;;;3.92;2.03;;;;;;;;;;5013359;28;20483;-54
2021/12/17 17:01:17;;;;;;;3.97;2.13;;;;;;;;;;5012113;28;20026;-53
2021/12/17 17:03:43;;;;;;;4.00;1.70;;;;;;;;;;5012799;28;20080;-55
2021/12/17 17:06:09;;;;;;;3.17;1.95;;;;;;;;;;5011471;28;20030;-55
2021/12/17 17:08:36;;;;;;;4.03;1.77;;;;;;;;;;5013215;28;20112;-53
2021/12/17 17:11:04;;;;;;;4.22;1.70;;;;;;;;;;5000889;28;20043;-57
2021/12/17 17:13:31;;;;;;;6.75;2.17;;;;;;;;;;5002768;28;20025;-52
2021/12/17 17:15:57;;;;;;;8.15;1.95;;;;;;;;;;5006063;28;20030;-59
2021/12/17 17:18:23;;;;;;;2.40;1.50;;;;;;;;;;5000238;28;20107;-51
2021/12/17 17:20:49;;;;;;;6.53;2.63;;;;;;;;;;5002855;28;20027;-56
2021/12/17 17:23:16;;;;;;;6.93;1.98;;;;;;;;;;4997166;28;20026;-57
2021/12/17 17:25:42;;;;;;;7.03;1.98;;;;;;;;;;5002442;28;20033;-55
2021/12/17 17:28:08;;;;;;;4.65;1.80;;;;;;;;;;5011826;28;20088;-55
2021/12/17 17:30:38;;;;;;;7.47;1.83;;;;;;;;;;5012608;28;20030;-53
2021/12/17 17:33:05;;;;;;;5.50;2.00;;;;;;;;;;5011873;28;20097;-52
2021/12/17 17:35:33;;;;;;;3.25;1.50;;;;;;;;;;5012899;28;20034;-54
2021/12/17 17:37:59;;;;;;;3.60;1.92;;;;;;;;;;5011712;28;20034;-59
2021/12/17 17:40:25;;;;;;;3.13;1.95;;;;;;;;;;5012550;28;20030;-51
2021/12/17 17:42:51;;;;;;;3.47;1.65;;;;;;;;;;5012109;28;20029;-49
2021/12/17 17:45:18;;;;;;;4.70;1.92;;;;;;;;;;5001944;28;20057;-49
2021/12/17 17:47:51;;;;;;;3.28;1.67;;;;;;;;;;5001827;28;20021;-52
2021/12/17 17:50:17;;;;;;;3.88;1.90;;;;;;;;;;4999709;28;20368;-53
2021/12/17 17:52:43;;;;;;;3.22;1.50;;;;;;;;;;5003646;28;20022;-51
2021/12/17 17:55:09;;;;;;;3.10;1.77;;;;;;;;;;5002514;28;20791;-55
2021/12/17 17:57:35;;;;;;;2.17;1.58;;;;;;;;;;5002510;28;20057;-52
2021/12/17 18:00:02;;;;;;;6.15;2.08;;;;;;;;;;5000540;28;20030;-57
2021/12/17 18:02:28;;;;;;;3.83;1.63;;;;;;;;;;5003420;28;20475;-50
2021/12/17 18:04:54;;;;;;;3.88;1.75;;;;;;;;;;4999473;28;20356;-57
2021/12/17 18:07:20;;;;;;;1.83;1.45;;;;;;;;;;5000798;28;20053;-56
2021/12/17 18:09:46;;;;;;;2.17;1.63;;;;;;;;;;5002743;28;20096;-54
2021/12/17 18:12:12;;;;;;;2.92;1.52;;;;;;;;;;5001654;28;20526;-52